sensor_id;sensor_type;location;lat;lon;timestamp;temperature;humidity
18268;DHT22;9260;49.998;19.880;2022-11-14T00:06:46;4.80;99.90
18268;DHT22;9260;49.998;19.880;2022-11-14T00:17:08;4.70;99.90
18268;DHT22;9260;49.998;19.880;2022-11-14T00:27:32;4.70;99.90
18268;DHT22;9260;49.998;19.880;2022-11-14T00:37:53;4.60;99.90
18268;DHT22;9260;49.998;19.880;2022-11-14T00:48:16;4.70;99.90
18268;DHT22;9260;49.998;19.880;2022-11-14T00:58:38;4.70;99.90
18268;DHT22;9260;49.998;19.880;2022-11-14T01:09:02;4.60;99.90
18268;DHT22;9260;49.998;19.880;2022-11-14T01:19:24;4.40;99.90
18268;DHT22;9260;49.998;19.880;2022-11-14T01:29:47;4.40;99.90
18268;DHT22;9260;49.998;19.880;2022-11-14T01:40:10;4.50;99.90
18268;DHT22;9260;49.998;19.880;2022-11-14T01:50:34;4.40;99.90
18268;DHT22;9260;49.998;19.880;2022-11-14T02:00:57;4.10;99.90
18268;DHT22;9260;49.998;19.880;2022-11-14T02:11:21;4.30;99.90
18268;DHT22;9260;49.998;19.880;2022-11-14T02:21:44;4.30;99.90
18268;DHT22;9260;49.998;19.880;2022-11-14T02:32:06;4.20;99.90
18268;DHT22;9260;49.998;19.880;2022-11-14T02:42:31;4.20;99.90
18268;DHT22;9260;49.998;19.880;2022-11-14T02:52:53;4.10;99.90
18268;DHT22;9260;49.998;19.880;2022-11-14T03:03:17;4.10;99.90
18268;DHT22;9260;49.998;19.880;2022-11-14T03:13:39;4.20;99.90
18268;DHT22;9260;49.998;19.880;2022-11-14T03:24:03;4.30;99.90
18268;DHT22;9260;49.998;19.880;2022-11-14T03:34:26;4.30;99.90
18268;DHT22;9260;49.998;19.880;2022-11-14T03:44:49;4.40;99.90
18268;DHT22;9260;49.998;19.880;2022-11-14T03:55:11;4.30;99.90
18268;DHT22;9260;49.998;19.880;2022-11-14T04:05:35;4.20;99.90
18268;DHT22;9260;49.998;19.880;2022-11-14T04:15:57;4.40;99.90
18268;DHT22;9260;49.998;19.880;2022-11-14T04:26:20;4.30;99.90
18268;DHT22;9260;49.998;19.880;2022-11-14T04:36:42;4.40;99.90
18268;DHT22;9260;49.998;19.880;2022-11-14T04:47:06;4.30;99.90
18268;DHT22;9260;49.998;19.880;2022-11-14T04:57:28;4.30;99.90
18268;DHT22;9260;49.998;19.880;2022-11-14T05:07:52;4.40;99.90
18268;DHT22;9260;49.998;19.880;2022-11-14T05:18:14;4.40;99.90
18268;DHT22;9260;49.998;19.880;2022-11-14T05:28:38;4.30;99.90
18268;DHT22;9260;49.998;19.880;2022-11-14T05:39:01;4.40;99.90
18268;DHT22;9260;49.998;19.880;2022-11-14T05:49:25;4.20;99.90
18268;DHT22;9260;49.998;19.880;2022-11-14T05:59:47;4.10;99.90
18268;DHT22;9260;49.998;19.880;2022-11-14T06:10:11;3.90;99.90
18268;DHT22;9260;49.998;19.880;2022-11-14T06:20:33;4.00;99.90
18268;DHT22;9260;49.998;19.880;2022-11-14T06:30:58;4.10;99.90
18268;DHT22;9260;49.998;19.880;2022-11-14T06:41:22;4.10;99.90
18268;DHT22;9260;49.998;19.880;2022-11-14T06:51:45;4.10;99.90
18268;DHT22;9260;49.998;19.880;2022-11-14T07:02:10;4.30;99.90
18268;DHT22;9260;49.998;19.880;2022-11-14T07:12:42;4.20;99.90
18268;DHT22;9260;49.998;19.880;2022-11-14T07:23:04;4.40;99.90
18268;DHT22;9260;49.998;19.880;2022-11-14T07:33:28;4.40;99.90
18268;DHT22;9260;49.998;19.880;2022-11-14T07:43:50;4.30;99.90
18268;DHT22;9260;49.998;19.880;2022-11-14T07:54:14;4.70;99.90
18268;DHT22;9260;49.998;19.880;2022-11-14T08:04:36;4.90;99.90
18268;DHT22;9260;49.998;19.880;2022-11-14T08:14:59;5.10;99.90
18268;DHT22;9260;49.998;19.880;2022-11-14T08:25:21;5.30;99.90
18268;DHT22;9260;49.998;19.880;2022-11-14T08:35:44;5.60;99.90
18268;DHT22;9260;49.998;19.880;2022-11-14T08:46:08;5.50;99.90
18268;DHT22;9260;49.998;19.880;2022-11-14T08:56:31;5.70;99.90
18268;DHT22;9260;49.998;19.880;2022-11-14T09:06:53;5.70;99.90
18268;DHT22;9260;49.998;19.880;2022-11-14T09:17:17;5.70;99.90
18268;DHT22;9260;49.998;19.880;2022-11-14T09:27:39;5.90;99.90
18268;DHT22;9260;49.998;19.880;2022-11-14T09:38:05;5.90;99.90
18268;DHT22;9260;49.998;19.880;2022-11-14T09:48:29;6.10;99.90
18268;DHT22;9260;49.998;19.880;2022-11-14T09:58:55;6.20;99.90
18268;DHT22;9260;49.998;19.880;2022-11-14T10:09:29;6.50;99.90
18268;DHT22;9260;49.998;19.880;2022-11-14T10:20:06;6.30;99.90
18268;DHT22;9260;49.998;19.880;2022-11-14T10:30:37;6.30;99.90
18268;DHT22;9260;49.998;19.880;2022-11-14T10:41:04;6.20;99.90
18268;DHT22;9260;49.998;19.880;2022-11-14T10:51:33;6.10;99.90
18268;DHT22;9260;49.998;19.880;2022-11-14T11:01:59;6.20;99.90
18268;DHT22;9260;49.998;19.880;2022-11-14T11:12:23;6.40;99.90
18268;DHT22;9260;49.998;19.880;2022-11-14T11:22:48;6.40;99.90
18268;DHT22;9260;49.998;19.880;2022-11-14T11:33:21;6.30;99.90
18268;DHT22;9260;49.998;19.880;2022-11-14T11:43:48;6.10;99.90
18268;DHT22;9260;49.998;19.880;2022-11-14T11:54:18;5.90;99.90
18268;DHT22;9260;49.998;19.880;2022-11-14T12:04:42;5.80;99.90
18268;DHT22;9260;49.998;19.880;2022-11-14T12:15:13;5.60;99.90
18268;DHT22;9260;49.998;19.880;2022-11-14T12:25:47;5.40;99.90
18268;DHT22;9260;49.998;19.880;2022-11-14T12:36:17;5.50;99.90
18268;DHT22;9260;49.998;19.880;2022-11-14T12:47:15;5.60;99.90
18268;DHT22;9260;49.998;19.880;2022-11-14T12:57:42;5.20;99.90
18268;DHT22;9260;49.998;19.880;2022-11-14T13:08:29;5.20;99.90
18268;DHT22;9260;49.998;19.880;2022-11-14T13:19:11;5.30;99.90
18268;DHT22;9260;49.998;19.880;2022-11-14T13:29:55;5.20;99.90
18268;DHT22;9260;49.998;19.880;2022-11-14T13:40:24;5.00;99.90
18268;DHT22;9260;49.998;19.880;2022-11-14T13:50:54;5.20;99.90
18268;DHT22;9260;49.998;19.880;2022-11-14T14:01:51;5.30;99.90
18268;DHT22;9260;49.998;19.880;2022-11-14T14:12:41;5.00;99.90
18268;DHT22;9260;49.998;19.880;2022-11-14T14:23:19;4.90;99.90
18268;DHT22;9260;49.998;19.880;2022-11-14T14:33:50;4.90;99.90
18268;DHT22;9260;49.998;19.880;2022-11-14T14:44:21;4.80;99.90
18268;DHT22;9260;49.998;19.880;2022-11-14T14:54:53;4.80;99.90
18268;DHT22;9260;49.998;19.880;2022-11-14T15:05:21;4.60;99.90
18268;DHT22;9260;49.998;19.880;2022-11-14T15:15:45;4.70;99.90
18268;DHT22;9260;49.998;19.880;2022-11-14T15:26:13;4.60;99.90
18268;DHT22;9260;49.998;19.880;2022-11-14T15:37:17;4.60;99.90
18268;DHT22;9260;49.998;19.880;2022-11-14T15:47:41;4.80;99.90
18268;DHT22;9260;49.998;19.880;2022-11-14T15:58:07;4.90;99.90
18268;DHT22;9260;49.998;19.880;2022-11-14T16:08:48;4.80;99.90
18268;DHT22;9260;49.998;19.880;2022-11-14T16:19:12;4.70;99.90
18268;DHT22;9260;49.998;19.880;2022-11-14T16:29:35;4.60;99.90
18268;DHT22;9260;49.998;19.880;2022-11-14T16:39:58;4.50;99.90
18268;DHT22;9260;49.998;19.880;2022-11-14T16:50:20;4.60;99.90
18268;DHT22;9260;49.998;19.880;2022-11-14T17:00:44;4.70;99.90
18268;DHT22;9260;49.998;19.880;2022-11-14T17:11:09;4.50;99.90
18268;DHT22;9260;49.998;19.880;2022-11-14T17:21:33;4.50;99.90
18268;DHT22;9260;49.998;19.880;2022-11-14T17:31:55;4.40;99.90
18268;DHT22;9260;49.998;19.880;2022-11-14T17:42:19;4.50;99.90
18268;DHT22;9260;49.998;19.880;2022-11-14T17:52:40;4.30;99.90
18268;DHT22;9260;49.998;19.880;2022-11-14T18:03:04;4.40;99.90
18268;DHT22;9260;49.998;19.880;2022-11-14T18:13:25;4.40;99.90
18268;DHT22;9260;49.998;19.880;2022-11-14T18:23:51;4.30;99.90
18268;DHT22;9260;49.998;19.880;2022-11-14T18:34:14;4.40;99.90
18268;DHT22;9260;49.998;19.880;2022-11-14T18:44:37;4.40;99.90
18268;DHT22;9260;49.998;19.880;2022-11-14T18:55:00;4.40;99.90
18268;DHT22;9260;49.998;19.880;2022-11-14T19:05:24;4.30;99.90
18268;DHT22;9260;49.998;19.880;2022-11-14T19:15:46;4.30;99.90
18268;DHT22;9260;49.998;19.880;2022-11-14T19:26:09;4.40;99.90
18268;DHT22;9260;49.998;19.880;2022-11-14T19:36:32;4.20;99.90
18268;DHT22;9260;49.998;19.880;2022-11-14T19:47:16;4.10;99.90
18268;DHT22;9260;49.998;19.880;2022-11-14T19:57:37;4.00;99.90
18268;DHT22;9260;49.998;19.880;2022-11-14T20:08:01;3.90;99.90
18268;DHT22;9260;49.998;19.880;2022-11-14T20:18:23;3.90;99.90
18268;DHT22;9260;49.998;19.880;2022-11-14T20:28:47;4.00;99.90
18268;DHT22;9260;49.998;19.880;2022-11-14T20:39:12;4.00;99.90
18268;DHT22;9260;49.998;19.880;2022-11-14T20:49:36;3.90;99.90
18268;DHT22;9260;49.998;19.880;2022-11-14T20:59:58;4.00;99.90
18268;DHT22;9260;49.998;19.880;2022-11-14T21:10:21;4.00;99.90
18268;DHT22;9260;49.998;19.880;2022-11-14T21:21:02;4.10;99.90
18268;DHT22;9260;49.998;19.880;2022-11-14T21:31:28;4.10;99.90
18268;DHT22;9260;49.998;19.880;2022-11-14T21:41:53;4.10;99.90
18268;DHT22;9260;49.998;19.880;2022-11-14T21:52:16;4.00;99.90
18268;DHT22;9260;49.998;19.880;2022-11-14T22:02:38;4.00;99.90
18268;DHT22;9260;49.998;19.880;2022-11-14T22:13:19;3.90;99.90
18268;DHT22;9260;49.998;19.880;2022-11-14T22:23:41;3.90;99.90
18268;DHT22;9260;49.998;19.880;2022-11-14T22:34:05;3.80;99.90
18268;DHT22;9260;49.998;19.880;2022-11-14T22:44:27;3.90;99.90
18268;DHT22;9260;49.998;19.880;2022-11-14T22:54:50;3.90;99.90
18268;DHT22;9260;49.998;19.880;2022-11-14T23:05:13;3.70;99.90
18268;DHT22;9260;49.998;19.880;2022-11-14T23:15:36;3.80;99.90
18268;DHT22;9260;49.998;19.880;2022-11-14T23:26:01;3.80;99.90
18268;DHT22;9260;49.998;19.880;2022-11-14T23:36:25;3.70;99.90
18268;DHT22;9260;49.998;19.880;2022-11-14T23:46:47;3.50;99.90
18268;DHT22;9260;49.998;19.880;2022-11-14T23:57:11;3.20;99.90
